Time;durP1;ratioP1;P1;durP2;ratioP2;P2;SDS_P1;SDS_P2;PMS_P1;PMS_P2;Temp;Humidity;BMP_temperature;BMP_pressure;BME280_temperature;BME280_humidity;BME280_pressure;Samples;Min_cycle;Max_cycle;Signal;HPM_P1;HPM_P2
2024/03/11 00:00:20;;;;;;;16.57;8.63;;;8.40;99.90;;;;;;4160305;28;20041;-59
2024/03/11 00:02:22;;;;;;;15.80;9.77;;;8.40;99.90;;;;;;4160232;28;20095;-52
2024/03/11 00:04:24;;;;;;;16.63;9.33;;;8.50;99.90;;;;;;4161107;28;20516;-58
2024/03/11 00:06:25;;;;;;;14.20;9.10;;;8.50;99.90;;;;;;4159479;28;20556;-56
2024/03/11 00:08:27;;;;;;;15.00;9.60;;;8.50;99.90;;;;;;4159977;28;20387;-57
2024/03/11 00:10:28;;;;;;;20.90;9.27;;;8.40;99.90;;;;;;4160600;28;20018;-58
2024/03/11 00:12:31;;;;;;;15.53;9.00;;;8.40;99.90;;;;;;4159841;28;20427;-58
2024/03/11 00:14:33;;;;;;;14.93;9.30;;;8.40;99.90;;;;;;4160780;28;20076;-57
2024/03/11 00:16:35;;;;;;;17.30;9.47;;;8.40;99.90;;;;;;4160131;28;20022;-58
2024/03/11 00:18:36;;;;;;;17.90;8.90;;;8.30;99.90;;;;;;4161180;28;20068;-55
2024/03/11 00:20:38;;;;;;;15.27;8.47;;;8.40;99.90;;;;;;4159113;28;20092;-55
2024/03/11 00:22:39;;;;;;;17.33;9.27;;;8.40;99.90;;;;;;4161019;28;20107;-50
2024/03/11 00:24:40;;;;;;;14.70;8.67;;;8.40;99.90;;;;;;4160773;28;20095;-56
2024/03/11 00:26:41;;;;;;;15.27;8.90;;;8.40;99.90;;;;;;4163423;28;20076;-57
2024/03/11 00:28:44;;;;;;;13.87;8.87;;;8.30;99.90;;;;;;4162407;28;20409;-54
2024/03/11 00:30:45;;;;;;;15.87;9.10;;;8.30;99.90;;;;;;4163294;28;20041;-54
2024/03/11 00:32:46;;;;;;;14.93;8.33;;;8.30;99.90;;;;;;4161417;28;20119;-53
2024/03/11 00:34:47;;;;;;;14.60;8.77;;;8.30;99.90;;;;;;4164385;28;20532;-56
2024/03/11 00:36:49;;;;;;;14.63;8.90;;;8.40;99.90;;;;;;4163358;28;20026;-57
2024/03/11 00:38:51;;;;;;;16.40;9.03;;;8.40;99.90;;;;;;4163625;28;20107;-53
2024/03/11 00:40:52;;;;;;;15.30;8.83;;;8.40;99.90;;;;;;4162935;28;20091;-57
2024/03/11 00:42:54;;;;;;;13.43;8.37;;;8.40;99.90;;;;;;4163087;28;20091;-54
2024/03/11 00:44:56;;;;;;;14.10;8.20;;;8.40;99.90;;;;;;4163161;28;20038;-58
2024/03/11 00:46:58;;;;;;;15.93;9.13;;;8.40;99.90;;;;;;4162708;28;20068;-57
2024/03/11 00:48:59;;;;;;;14.07;8.30;;;8.40;99.90;;;;;;4164147;28;20033;-55
2024/03/11 00:51:00;;;;;;;13.40;8.03;;;8.40;99.90;;;;;;4162249;28;20460;-54
2024/03/11 00:53:03;;;;;;;13.70;8.53;;;8.50;99.90;;;;;;4163401;28;20536;-55
2024/03/11 00:55:11;;;;;;;11.57;7.60;;;8.60;99.90;;;;;;4161846;28;20049;-56
2024/03/11 00:57:14;;;;;;;12.27;7.00;;;8.60;99.90;;;;;;4162736;28;20088;-60
2024/03/11 00:59:15;;;;;;;11.70;6.83;;;8.70;99.90;;;;;;4162052;28;20444;-58
2024/03/11 01:01:16;;;;;;;11.70;6.40;;;8.90;99.90;;;;;;4163913;28;20033;-57
2024/03/11 01:03:17;;;;;;;11.00;5.53;;;9.00;99.90;;;;;;4162767;28;20552;-57
2024/03/11 01:05:19;;;;;;;8.73;5.67;;;9.20;99.90;;;;;;4163109;28;20088;-56
2024/03/11 01:07:20;;;;;;;13.70;6.77;;;9.40;99.90;;;;;;4161955;28;20103;-57
2024/03/11 01:09:22;;;;;;;8.90;5.30;;;9.50;99.90;;;;;;4162817;28;20091;-57
2024/03/11 01:11:23;;;;;;;9.13;6.13;;;9.50;99.90;;;;;;4162633;28;20413;-56
2024/03/11 01:13:25;;;;;;;8.33;5.37;;;9.60;99.90;;;;;;4163317;28;20109;-57
2024/03/11 01:15:26;;;;;;;10.13;5.87;;;9.60;99.90;;;;;;4162975;28;20068;-56
2024/03/11 01:17:28;;;;;;;12.23;6.57;;;9.60;99.90;;;;;;4163327;28;20117;-56
2024/03/11 01:19:29;;;;;;;12.13;6.10;;;9.50;99.90;;;;;;4162419;28;20045;-55
2024/03/11 01:21:31;;;;;;;10.47;6.47;;;9.50;99.90;;;;;;4162246;28;20025;-59
2024/03/11 01:23:32;;;;;;;11.00;6.20;;;9.50;99.90;;;;;;4163046;28;20498;-59
2024/03/11 01:25:34;;;;;;;11.30;7.37;;;9.40;99.90;;;;;;4161983;28;20029;-56
2024/03/11 01:27:35;;;;;;;11.03;7.07;;;9.40;99.90;;;;;;4162618;28;20476;-60
2024/03/11 01:29:41;;;;;;;11.60;6.90;;;9.40;99.90;;;;;;4161396;28;20029;-59
2024/03/11 01:31:43;;;;;;;11.33;6.40;;;9.30;99.90;;;;;;4162790;28;20072;-56
2024/03/11 01:33:44;;;;;;;10.17;6.70;;;9.30;99.90;;;;;;4161221;28;20041;-57
2024/03/11 01:35:45;;;;;;;12.33;7.03;;;9.30;99.90;;;;;;4161654;28;20087;-59
2024/03/11 01:37:47;;;;;;;12.03;6.40;;;9.30;99.90;;;;;;4160662;28;20533;-56
2024/03/11 01:39:51;;;;;;;12.57;6.90;;;9.30;99.90;;;;;;4163291;28;20362;-58
2024/03/11 01:41:53;;;;;;;11.20;6.10;;;9.30;99.90;;;;;;4161163;28;20452;-59
2024/03/11 01:43:56;;;;;;;12.33;6.73;;;9.40;99.90;;;;;;4162388;28;20107;-56
2024/03/11 01:45:57;;;;;;;10.13;6.63;;;9.30;99.90;;;;;;4161039;28;20087;-59
2024/03/11 01:47:59;;;;;;;10.27;6.47;;;9.30;99.90;;;;;;4162297;28;20045;-60
2024/03/11 01:50:00;;;;;;;10.77;7.00;;;9.40;99.90;;;;;;4162428;28;20413;-58
2024/03/11 01:52:02;;;;;;;12.13;7.03;;;9.40;99.90;;;;;;4161686;28;20438;-57
2024/03/11 01:54:05;;;;;;;11.47;7.03;;;9.40;99.90;;;;;;4161435;28;20049;-58
2024/03/11 01:56:06;;;;;;;17.07;8.10;;;9.40;99.90;;;;;;4160781;28;20056;-58
2024/03/11 01:58:09;;;;;;;17.50;8.40;;;9.30;99.90;;;;;;4162326;28;20045;-59
2024/03/11 02:00:11;;;;;;;11.37;7.70;;;9.30;99.90;;;;;;4161106;28;20095;-59
2024/03/11 02:02:13;;;;;;;14.37;8.60;;;9.30;99.90;;;;;;4144275;28;20053;-59
2024/03/11 02:04:15;;;;;;;13.87;7.60;;;9.30;99.90;;;;;;4160723;28;20568;-59
2024/03/11 02:06:17;;;;;;;14.97;7.87;;;9.20;99.90;;;;;;4162825;28;20477;-59
2024/03/11 02:08:21;;;;;;;14.80;7.50;;;9.20;99.90;;;;;;4161654;28;20437;-60
2024/03/11 02:10:24;;;;;;;12.33;7.57;;;9.20;99.90;;;;;;4162499;28;20174;-56
2024/03/11 02:12:26;;;;;;;13.33;7.70;;;9.20;99.90;;;;;;4161090;28;20140;-53
2024/03/11 02:14:27;;;;;;;12.60;7.63;;;9.20;99.90;;;;;;4162167;28;20645;-58
2024/03/11 02:16:29;;;;;;;12.97;7.60;;;9.20;99.90;;;;;;4160768;28;20083;-54
2024/03/11 02:18:30;;;;;;;12.80;7.90;;;9.20;99.90;;;;;;4162409;28;20030;-60
2024/03/11 02:20:32;;;;;;;14.10;7.67;;;9.20;99.90;;;;;;4161149;28;20117;-59
2024/03/11 02:22:34;;;;;;;12.80;8.50;;;9.20;99.90;;;;;;4161547;28;20053;-60
2024/03/11 02:24:35;;;;;;;12.40;7.33;;;9.20;99.90;;;;;;4161432;28;20099;-60
2024/03/11 02:26:36;;;;;;;11.27;7.57;;;9.20;99.90;;;;;;4160981;28;20041;-57
2024/03/11 02:28:38;;;;;;;13.93;8.37;;;9.20;99.90;;;;;;4161395;28;20088;-55
2024/03/11 02:30:39;;;;;;;12.67;7.10;;;9.20;99.90;;;;;;4160558;28;20075;-55
2024/03/11 02:32:40;;;;;;;16.00;8.30;;;9.20;99.90;;;;;;4161539;28;20045;-58
2024/03/11 02:34:41;;;;;;;12.43;7.53;;;9.30;99.90;;;;;;4160912;28;20029;-59
2024/03/11 02:36:48;;;;;;;11.97;7.13;;;9.30;99.90;;;;;;4161311;28;20041;-60
2024/03/11 02:38:49;;;;;;;10.87;7.03;;;9.30;99.90;;;;;;4160431;28;20245;-61
2024/03/11 02:40:51;;;;;;;12.40;7.60;;;9.30;99.90;;;;;;4161506;28;20095;-59
2024/03/11 02:42:53;;;;;;;12.13;8.10;;;9.30;99.90;;;;;;4160806;28;20535;-61
2024/03/11 02:44:55;;;;;;;11.70;7.77;;;9.30;99.90;;;;;;4162253;28;20037;-58
2024/03/11 02:46:56;;;;;;;17.87;8.47;;;9.30;99.90;;;;;;4160403;28;20122;-57
2024/03/11 02:48:57;;;;;;;13.20;6.80;;;9.30;99.90;;;;;;4161361;28;20045;-58
2024/03/11 02:50:58;;;;;;;15.07;7.47;;;9.30;99.90;;;;;;4161118;28;20021;-59
2024/03/11 02:53:00;;;;;;;14.20;7.40;;;9.30;99.90;;;;;;4161297;28;20092;-59
2024/03/11 02:55:02;;;;;;;10.97;6.87;;;9.30;99.90;;;;;;4160674;28;20033;-58
2024/03/11 02:57:05;;;;;;;10.87;6.90;;;9.30;99.90;;;;;;4160792;28;20045;-58
2024/03/11 02:59:06;;;;;;;11.90;6.30;;;9.40;99.90;;;;;;4161420;28;20033;-56
2024/03/11 03:01:07;;;;;;;13.10;6.43;;;9.40;99.90;;;;;;4160054;28;20068;-59
2024/03/11 03:03:09;;;;;;;13.13;6.53;;;9.50;99.90;;;;;;4161445;28;20092;-59
2024/03/11 03:05:12;;;;;;;10.60;6.27;;;9.50;99.90;;;;;;4160025;28;20430;-61
2024/03/11 03:07:17;;;;;;;11.80;6.67;;;9.50;99.90;;;;;;4161853;28;20072;-59
2024/03/11 03:09:21;;;;;;;9.93;6.70;;;9.50;99.90;;;;;;4160397;28;20049;-57
2024/03/11 03:11:22;;;;;;;11.77;6.97;;;9.50;99.90;;;;;;4161549;28;20379;-55
2024/03/11 03:13:24;;;;;;;19.40;7.23;;;9.40;99.90;;;;;;4160111;28;20041;-58
2024/03/11 03:15:26;;;;;;;12.50;6.97;;;9.30;99.90;;;;;;4160696;28;20532;-59
2024/03/11 03:17:27;;;;;;;13.77;7.57;;;9.30;99.90;;;;;;4160567;28;20042;-53
2024/03/11 03:19:28;;;;;;;13.40;6.53;;;9.30;99.90;;;;;;4161796;28;20037;-54
2024/03/11 03:21:30;;;;;;;12.47;7.00;;;9.30;99.90;;;;;;4159896;28;20080;-53
2024/03/11 03:23:32;;;;;;;9.33;6.10;;;9.40;99.90;;;;;;4161302;28;20049;-51
2024/03/11 03:25:33;;;;;;;12.30;6.47;;;9.40;99.90;;;;;;4160043;28;20561;-55
2024/03/11 03:27:35;;;;;;;12.53;6.13;;;9.50;99.90;;;;;;4160934;28;20045;-54
2024/03/11 03:29:39;;;;;;;8.73;5.70;;;9.60;99.90;;;;;;4160796;28;20025;-53
2024/03/11 03:31:41;;;;;;;11.00;6.53;;;9.60;99.90;;;;;;4159792;28;20115;-56
2024/03/11 03:33:42;;;;;;;11.97;6.67;;;9.60;99.90;;;;;;4160172;28;20050;-54
2024/03/11 03:35:44;;;;;;;13.57;7.73;;;9.50;99.90;;;;;;4159675;28;20041;-55
2024/03/11 03:37:45;;;;;;;13.70;6.87;;;9.50;99.90;;;;;;4160579;28;20140;-55
2024/03/11 03:39:47;;;;;;;11.90;6.83;;;9.50;99.90;;;;;;4159594;28;20556;-54
2024/03/11 03:41:50;;;;;;;14.17;7.57;;;9.40;99.90;;;;;;4160583;28;20394;-53
2024/03/11 03:43:51;;;;;;;10.97;6.97;;;9.40;99.90;;;;;;4159413;28;20107;-57
2024/03/11 03:45:53;;;;;;;12.30;6.67;;;9.30;99.90;;;;;;4161251;28;20041;-55
2024/03/11 03:47:54;;;;;;;10.90;6.70;;;9.30;99.90;;;;;;4160764;28;20033;-54
2024/03/11 03:49:56;;;;;;;11.83;6.87;;;9.20;99.90;;;;;;4161510;28;20034;-55
2024/03/11 03:51:57;;;;;;;10.87;7.50;;;9.20;99.90;;;;;;4159326;28;20118;-55
2024/03/11 03:53:58;;;;;;;12.90;7.57;;;9.20;99.90;;;;;;4160532;28;20037;-53
2024/03/11 03:56:00;;;;;;;12.40;7.43;;;9.20;99.90;;;;;;4159323;28;20095;-56
2024/03/11 03:58:01;;;;;;;11.37;7.70;;;9.20;99.90;;;;;;4160998;28;20025;-56
2024/03/11 04:00:05;;;;;;;12.63;7.50;;;9.20;99.90;;;;;;4159595;28;20068;-59
2024/03/11 04:02:08;;;;;;;12.37;7.33;;;9.20;99.90;;;;;;4159876;28;20111;-53
2024/03/11 04:04:09;;;;;;;11.53;7.20;;;9.20;99.90;;;;;;4159777;28;20050;-52
2024/03/11 04:06:11;;;;;;;11.33;6.60;;;9.10;99.90;;;;;;4159887;28;20108;-56
2024/03/11 04:08:12;;;;;;;11.53;6.77;;;9.10;99.90;;;;;;4160525;28;20119;-55
2024/03/11 04:10:18;;;;;;;10.57;6.87;;;9.00;99.90;;;;;;4159945;28;20532;-55
2024/03/11 04:12:20;;;;;;;11.97;7.13;;;9.00;99.90;;;;;;4161033;28;20017;-53
2024/03/11 04:14:21;;;;;;;11.47;7.00;;;8.90;99.90;;;;;;4159251;28;20122;-54
2024/03/11 04:16:25;;;;;;;12.90;7.10;;;8.80;99.90;;;;;;4160156;28;20482;-56
2024/03/11 04:18:26;;;;;;;12.93;7.20;;;8.80;99.90;;;;;;4159877;28;20391;-57
2024/03/11 04:20:27;;;;;;;10.40;6.70;;;8.70;99.90;;;;;;4160893;28;20087;-54
2024/03/11 04:22:28;;;;;;;12.93;7.37;;;8.60;99.90;;;;;;4159945;28;20052;-54
2024/03/11 04:24:31;;;;;;;11.50;7.07;;;8.60;99.90;;;;;;4160168;28;20025;-54
2024/03/11 04:26:33;;;;;;;12.17;7.23;;;8.60;99.90;;;;;;4158638;28;20579;-52
2024/03/11 04:28:36;;;;;;;16.13;7.97;;;8.60;99.90;;;;;;4160295;28;20095;-58
2024/03/11 04:30:41;;;;;;;13.30;7.60;;;8.60;99.90;;;;;;4159283;28;20029;-59
2024/03/11 04:32:51;;;;;;;11.00;7.43;;;8.50;99.90;;;;;;4159884;28;20315;-53
2024/03/11 04:34:52;;;;;;;10.40;7.00;;;8.60;99.90;;;;;;4159629;28;20025;-58
2024/03/11 04:36:54;;;;;;;11.10;7.07;;;8.50;99.90;;;;;;4159547;28;20045;-53
2024/03/11 04:38:55;;;;;;;12.10;7.00;;;8.50;99.90;;;;;;4159134;28;20383;-60
2024/03/11 04:40:56;;;;;;;12.90;7.60;;;8.50;99.90;;;;;;4159252;28;20107;-54
2024/03/11 04:42:58;;;;;;;15.77;8.23;;;8.50;99.90;;;;;;4160207;28;20222;-56
2024/03/11 04:44:59;;;;;;;14.10;7.93;;;8.40;99.90;;;;;;4159493;28;20033;-54
2024/03/11 04:47:00;;;;;;;16.57;7.80;;;8.40;99.90;;;;;;4159981;28;20552;-59
2024/03/11 04:49:02;;;;;;;14.50;7.60;;;8.40;99.90;;;;;;4159270;28;20509;-54
2024/03/11 04:51:06;;;;;;;13.13;7.00;;;8.40;99.90;;;;;;4160179;28;20061;-54
2024/03/11 04:53:07;;;;;;;11.47;6.70;;;8.40;99.90;;;;;;4158693;28;20073;-58
2024/03/11 04:55:09;;;;;;;14.40;6.67;;;8.50;99.90;;;;;;4159698;28;20389;-55
2024/03/11 04:57:10;;;;;;;10.97;7.30;;;8.50;99.90;;;;;;4158379;28;20034;-56
2024/03/11 04:59:12;;;;;;;13.33;8.13;;;8.50;99.90;;;;;;4159522;28;20075;-54
2024/03/11 05:01:13;;;;;;;10.00;7.07;;;8.40;99.90;;;;;;4158498;28;20041;-57
2024/03/11 05:03:14;;;;;;;13.00;7.77;;;8.50;99.90;;;;;;4159108;28;20076;-56
2024/03/11 05:05:16;;;;;;;12.83;7.67;;;8.40;99.90;;;;;;4159096;28;20519;-52
2024/03/11 05:07:17;;;;;;;14.53;8.33;;;8.40;99.90;;;;;;4160053;28;20034;-52
2024/03/11 05:09:18;;;;;;;15.93;7.00;;;8.40;99.90;;;;;;4158771;28;20528;-55
2024/03/11 05:11:20;;;;;;;10.20;6.47;;;8.30;99.90;;;;;;4161479;28;20095;-62
2024/03/11 05:13:21;;;;;;;14.00;7.33;;;8.30;99.90;;;;;;4162682;28;20021;-62
2024/03/11 05:15:22;;;;;;;12.07;7.03;;;8.30;99.90;;;;;;4162125;28;20836;-58
2024/03/11 05:17:24;;;;;;;11.40;6.97;;;8.30;99.90;;;;;;4163247;28;20097;-57
2024/03/11 05:19:25;;;;;;;12.27;7.03;;;8.30;99.90;;;;;;4161520;28;20478;-55
2024/03/11 05:21:26;;;;;;;11.10;6.97;;;8.30;99.90;;;;;;4162544;28;20033;-59
2024/03/11 05:23:28;;;;;;;12.63;7.13;;;8.30;99.90;;;;;;4160817;28;20543;-65
2024/03/11 05:25:29;;;;;;;14.53;8.27;;;8.30;99.90;;;;;;4162778;28;20678;-61
2024/03/11 05:27:31;;;;;;;10.93;6.97;;;8.30;99.90;;;;;;4160822;28;20045;-58
2024/03/11 05:29:33;;;;;;;11.67;6.90;;;8.30;99.90;;;;;;4160970;28;20115;-52
2024/03/11 05:31:35;;;;;;;12.23;7.33;;;8.30;99.90;;;;;;4145518;28;20038;-57
2024/03/11 05:33:37;;;;;;;15.23;8.17;;;8.30;99.90;;;;;;4146203;28;20030;-54
2024/03/11 05:35:38;;;;;;;15.40;8.83;;;8.30;99.90;;;;;;4145478;28;20038;-57
2024/03/11 05:37:39;;;;;;;14.97;8.70;;;8.20;99.90;;;;;;4146369;28;20022;-55
2024/03/11 05:39:41;;;;;;;12.80;7.50;;;8.10;99.90;;;;;;4145607;28;20025;-57
2024/03/11 05:41:43;;;;;;;14.77;8.00;;;8.10;99.90;;;;;;4146100;28;20538;-56
2024/03/11 05:43:44;;;;;;;13.70;7.33;;;8.20;99.90;;;;;;4145579;28;20107;-53
2024/03/11 05:45:47;;;;;;;16.20;7.70;;;8.30;99.90;;;;;;4145848;28;20108;-58
2024/03/11 05:47:48;;;;;;;11.40;7.00;;;8.40;99.90;;;;;;4146213;28;20030;-51
2024/03/11 05:49:50;;;;;;;11.00;6.70;;;8.50;99.90;;;;;;4156700;28;20037;-57
2024/03/11 05:51:52;;;;;;;10.80;6.73;;;8.50;99.90;;;;;;4162137;28;20021;-63
2024/03/11 05:53:56;;;;;;;10.67;6.80;;;8.40;99.90;;;;;;4160648;28;20095;-60
2024/03/11 05:55:57;;;;;;;15.43;6.73;;;8.40;99.90;;;;;;4160441;28;20107;-54
2024/03/11 05:58:08;;;;;;;12.67;7.10;;;8.50;99.90;;;;;;4157875;28;20148;-57
2024/03/11 06:00:11;;;;;;;13.67;7.23;;;8.50;99.90;;;;;;4157527;28;20111;-57
2024/03/11 06:02:12;;;;;;;12.73;6.97;;;8.50;99.90;;;;;;4144690;28;20038;-57
2024/03/11 06:04:14;;;;;;;12.13;6.13;;;8.50;99.90;;;;;;4145960;28;20376;-61
2024/03/11 06:06:19;;;;;;;13.60;7.37;;;8.50;99.90;;;;;;4144686;28;20033;-53
2024/03/11 06:08:21;;;;;;;11.80;6.97;;;8.50;99.90;;;;;;4147255;28;20045;-53
2024/03/11 06:10:23;;;;;;;12.63;7.40;;;8.50;99.90;;;;;;4160365;28;20451;-52
2024/03/11 06:12:24;;;;;;;12.80;7.93;;;8.50;99.90;;;;;;4161534;28;20379;-54
2024/03/11 06:14:26;;;;;;;15.40;7.30;;;8.50;99.90;;;;;;4159334;28;20135;-53
2024/03/11 06:16:27;;;;;;;14.10;7.60;;;8.40;99.90;;;;;;4160119;28;20029;-55
2024/03/11 06:18:29;;;;;;;12.50;7.33;;;8.40;99.90;;;;;;4160796;28;20041;-56
2024/03/11 06:20:30;;;;;;;14.63;7.10;;;8.30;99.90;;;;;;4161695;28;20045;-53
2024/03/11 06:22:32;;;;;;;11.70;6.83;;;8.30;99.90;;;;;;4161097;28;20432;-57
2024/03/11 06:24:33;;;;;;;16.70;7.50;;;8.30;99.90;;;;;;4160017;28;20114;-59
2024/03/11 06:26:35;;;;;;;11.83;7.43;;;8.30;99.90;;;;;;4160415;28;20409;-56
2024/03/11 06:28:38;;;;;;;10.73;6.97;;;8.30;99.90;;;;;;4156934;28;20034;-57
2024/03/11 06:30:43;;;;;;;12.27;8.53;;;8.30;99.90;;;;;;4160184;28;20175;-56
2024/03/11 06:32:48;;;;;;;13.10;7.70;;;8.30;99.90;;;;;;4159493;28;20029;-54
2024/03/11 06:34:51;;;;;;;18.93;7.57;;;8.30;99.90;;;;;;4160427;28;20049;-53
2024/03/11 06:36:53;;;;;;;13.13;6.60;;;8.40;99.90;;;;;;4159225;28;20053;-58
2024/03/11 06:38:54;;;;;;;12.27;6.73;;;8.40;99.90;;;;;;4159869;28;20095;-54
2024/03/11 06:40:57;;;;;;;15.20;7.70;;;8.40;99.90;;;;;;4158971;28;20164;-55
2024/03/11 06:42:58;;;;;;;13.20;7.13;;;8.50;99.90;;;;;;4161314;28;20038;-56
2024/03/11 06:44:59;;;;;;;16.37;7.80;;;8.50;99.90;;;;;;4160554;28;20041;-60
2024/03/11 06:47:01;;;;;;;12.10;6.83;;;8.60;99.90;;;;;;4143647;28;20049;-59
2024/03/11 06:49:02;;;;;;;11.57;7.37;;;8.60;99.90;;;;;;4161032;28;20029;-61
2024/03/11 06:51:04;;;;;;;11.87;6.50;;;8.70;99.90;;;;;;4161522;28;20041;-56
2024/03/11 06:53:08;;;;;;;14.23;6.40;;;8.80;99.90;;;;;;4161024;28;20096;-53
2024/03/11 06:55:12;;;;;;;11.23;6.53;;;8.80;99.90;;;;;;4160935;28;20040;-54
2024/03/11 06:57:13;;;;;;;11.60;6.90;;;8.80;99.90;;;;;;4161263;28;20025;-57
2024/03/11 06:59:14;;;;;;;17.50;8.90;;;8.90;99.90;;;;;;4160733;28;20080;-58
2024/03/11 07:01:16;;;;;;;17.63;8.80;;;8.90;99.90;;;;;;4160303;28;20041;-56
2024/03/11 07:03:17;;;;;;;17.23;8.97;;;8.90;99.90;;;;;;4160585;28;20379;-59
2024/03/11 07:05:18;;;;;;;15.47;8.20;;;8.80;99.90;;;;;;4161243;28;20041;-52
2024/03/11 07:07:21;;;;;;;13.47;6.70;;;8.80;99.90;;;;;;4160404;28;20017;-59
2024/03/11 07:09:22;;;;;;;13.80;6.07;;;8.80;99.90;;;;;;4161648;28;20045;-57
2024/03/11 07:11:23;;;;;;;15.40;7.93;;;8.80;99.90;;;;;;4159637;28;20516;-58
2024/03/11 07:13:25;;;;;;;11.37;6.80;;;8.80;99.90;;;;;;4160631;28;20088;-59
2024/03/11 07:15:26;;;;;;;13.83;6.57;;;8.90;99.90;;;;;;4159371;28;20494;-55
2024/03/11 07:17:28;;;;;;;14.87;7.07;;;8.90;99.90;;;;;;4161021;28;20037;-54
2024/03/11 07:19:30;;;;;;;11.23;7.10;;;9.00;99.90;;;;;;4160171;28;20045;-58
2024/03/11 07:21:32;;;;;;;23.27;7.27;;;9.00;99.90;;;;;;4160298;28;20041;-59
2024/03/11 07:23:33;;;;;;;16.70;7.27;;;9.00;99.90;;;;;;4160393;28;20041;-58
2024/03/11 07:25:34;;;;;;;11.40;6.77;;;9.00;99.90;;;;;;4159802;28;20459;-59
2024/03/11 07:27:37;;;;;;;13.53;6.07;;;9.00;99.90;;;;;;4159677;28;20501;-60
2024/03/11 07:29:39;;;;;;;11.40;6.57;;;9.00;99.90;;;;;;4159637;28;20037;-56
2024/03/11 07:31:40;;;;;;;16.37;7.17;;;9.10;99.90;;;;;;4159968;28;20107;-57
2024/03/11 07:33:42;;;;;;;13.40;8.27;;;9.10;99.90;;;;;;4159498;28;20039;-57
2024/03/11 07:35:43;;;;;;;11.77;7.23;;;9.20;99.90;;;;;;4159892;28;20502;-56
2024/03/11 07:37:45;;;;;;;12.67;6.80;;;9.20;99.90;;;;;;4159600;28;20037;-61
2024/03/11 07:39:46;;;;;;;13.73;6.90;;;9.30;99.90;;;;;;4160982;28;20025;-56
2024/03/11 07:41:47;;;;;;;12.23;6.43;;;9.30;99.90;;;;;;4159222;28;20119;-57
2024/03/11 07:43:48;;;;;;;16.20;7.03;;;9.30;99.90;;;;;;4143070;28;20057;-56
2024/03/11 07:45:50;;;;;;;14.30;7.30;;;9.30;99.90;;;;;;4159929;28;20095;-60
2024/03/11 07:47:53;;;;;;;15.97;7.50;;;9.40;99.90;;;;;;4160789;28;20063;-60
2024/03/11 07:49:58;;;;;;;18.37;7.60;;;9.40;99.90;;;;;;4160371;28;20123;-61
2024/03/11 07:51:59;;;;;;;13.97;6.83;;;9.50;99.90;;;;;;4161341;28;20021;-61
2024/03/11 07:54:01;;;;;;;10.10;5.73;;;9.60;99.90;;;;;;4160148;28;20067;-62
2024/03/11 07:56:04;;;;;;;12.83;6.67;;;9.70;99.90;;;;;;4160723;28;20067;-61
2024/03/11 07:58:06;;;;;;;13.50;6.70;;;9.80;99.90;;;;;;4159423;28;20037;-59
2024/03/11 08:00:10;;;;;;;15.07;6.97;;;9.80;99.90;;;;;;4159798;28;20037;-58
2024/03/11 08:02:11;;;;;;;12.13;7.40;;;9.90;99.90;;;;;;4159751;28;20046;-55
2024/03/11 08:04:13;;;;;;;18.00;8.40;;;9.90;99.90;;;;;;4160142;28;20579;-52
2024/03/11 08:06:14;;;;;;;13.57;7.47;;;9.90;99.90;;;;;;4160517;28;20056;-58
2024/03/11 08:08:17;;;;;;;18.13;7.67;;;9.90;99.90;;;;;;4159057;28;20466;-53
2024/03/11 08:10:19;;;;;;;9.43;5.80;;;10.00;99.90;;;;;;4142937;28;20022;-57
2024/03/11 08:12:20;;;;;;;12.97;6.57;;;9.90;99.90;;;;;;4158778;28;20099;-57
2024/03/11 08:14:21;;;;;;;10.93;6.67;;;9.90;99.90;;;;;;4160855;28;20029;-57
2024/03/11 08:16:23;;;;;;;12.23;6.47;;;9.90;99.90;;;;;;4160206;28;20033;-60
2024/03/11 08:18:24;;;;;;;12.53;6.77;;;9.80;99.90;;;;;;4161231;28;20042;-58
2024/03/11 08:20:26;;;;;;;15.90;6.97;;;9.90;99.90;;;;;;4159372;28;20342;-55
2024/03/11 08:22:28;;;;;;;12.70;7.57;;;9.90;99.90;;;;;;4160575;28;20494;-57
2024/03/11 08:24:29;;;;;;;11.50;5.80;;;9.90;99.90;;;;;;4159083;28;20049;-60
2024/03/11 08:26:31;;;;;;;14.00;6.70;;;9.90;99.90;;;;;;4160514;28;20042;-60
2024/03/11 08:28:33;;;;;;;6.20;4.60;;;9.90;99.90;;;;;;4159021;28;20405;-63
2024/03/11 08:30:34;;;;;;;7.87;4.80;;;9.90;99.90;;;;;;4160367;28;20369;-57
2024/03/11 08:32:38;;;;;;;8.30;5.43;;;10.00;99.90;;;;;;4159914;28;20056;-60
2024/03/11 08:34:40;;;;;;;8.43;5.37;;;10.00;99.90;;;;;;4159929;28;20083;-55
2024/03/11 08:36:42;;;;;;;11.90;5.83;;;10.10;99.90;;;;;;4159336;28;20364;-58
2024/03/11 08:38:43;;;;;;;14.20;5.53;;;10.10;99.90;;;;;;4159853;28;20083;-57
2024/03/11 08:40:45;;;;;;;15.00;6.53;;;10.10;99.90;;;;;;4159931;28;20084;-57
2024/03/11 08:42:48;;;;;;;9.67;5.00;;;10.10;99.90;;;;;;4159595;28;20084;-57
2024/03/11 08:44:51;;;;;;;8.93;4.93;;;10.10;99.90;;;;;;4160037;28;20057;-57
2024/03/11 08:46:52;;;;;;;7.13;4.43;;;10.10;99.90;;;;;;4161202;28;20041;-58
2024/03/11 08:48:54;;;;;;;13.40;5.20;;;10.20;99.90;;;;;;4164197;28;20037;-59
2024/03/11 08:50:55;;;;;;;9.33;4.97;;;10.20;99.90;;;;;;4162429;28;20743;-58
2024/03/11 08:52:56;;;;;;;12.30;5.23;;;10.20;99.90;;;;;;4163575;28;20544;-59
2024/03/11 08:54:58;;;;;;;10.13;4.63;;;10.30;99.90;;;;;;4162386;28;20045;-60
2024/03/11 08:57:02;;;;;;;7.10;4.87;;;10.30;99.90;;;;;;4163981;28;20029;-60
2024/03/11 08:59:10;;;;;;;12.67;5.30;;;10.30;99.90;;;;;;4162477;28;20034;-58
2024/03/11 09:01:11;;;;;;;9.73;4.93;;;10.40;99.90;;;;;;4163261;28;20037;-56
2024/03/11 09:03:15;;;;;;;11.73;5.47;;;10.40;99.90;;;;;;4161984;28;20029;-59
2024/03/11 09:05:17;;;;;;;14.00;5.53;;;10.50;99.90;;;;;;4162622;28;20053;-53
2024/03/11 09:07:20;;;;;;;8.23;4.50;;;10.50;99.90;;;;;;4161802;28;20456;-57
2024/03/11 09:09:26;;;;;;;10.50;5.10;;;10.50;99.90;;;;;;4162387;28;20186;-56
2024/03/11 09:11:27;;;;;;;8.30;5.33;;;10.60;99.90;;;;;;4161954;28;20049;-60
2024/03/11 09:13:29;;;;;;;9.87;5.17;;;10.60;99.90;;;;;;4162874;28;20033;-60
2024/03/11 09:15:30;;;;;;;10.60;5.10;;;10.70;99.90;;;;;;4162290;28;20060;-57
2024/03/11 09:17:31;;;;;;;11.63;5.40;;;10.80;99.90;;;;;;4161249;28;20095;-54
2024/03/11 09:19:33;;;;;;;8.03;5.20;;;10.90;99.90;;;;;;4163619;28;20025;-56
2024/03/11 09:21:34;;;;;;;8.67;4.97;;;10.90;99.90;;;;;;4161687;28;20037;-56
2024/03/11 09:23:36;;;;;;;12.87;5.30;;;10.90;99.90;;;;;;4163188;28;20038;-56
2024/03/11 09:25:38;;;;;;;10.33;4.80;;;10.90;99.90;;;;;;4161123;28;20091;-58
2024/03/11 09:27:40;;;;;;;10.10;5.30;;;10.90;99.90;;;;;;4162533;28;20038;-60
2024/03/11 09:29:41;;;;;;;8.80;4.90;;;10.90;99.90;;;;;;4161882;28;20038;-60
2024/03/11 09:31:43;;;;;;;9.53;5.37;;;10.90;99.90;;;;;;4162768;28;20075;-58
2024/03/11 09:33:44;;;;;;;7.67;4.83;;;10.90;99.90;;;;;;4162091;28;20017;-55
2024/03/11 09:35:47;;;;;;;11.27;4.97;;;11.00;99.90;;;;;;4162553;28;20033;-62
2024/03/11 09:37:53;;;;;;;10.20;5.60;;;11.00;99.90;;;;;;4161937;28;20067;-60
2024/03/11 09:39:55;;;;;;;9.53;5.13;;;11.10;99.90;;;;;;4161883;28;20536;-60
2024/03/11 09:42:05;;;;;;;9.60;5.03;;;11.20;99.90;;;;;;4161903;28;20381;-58
2024/03/11 09:44:20;;;;;;;9.85;4.80;;;11.30;99.90;;;;;;4160275;28;20041;-61
2024/03/11 09:46:21;;;;;;;10.97;5.20;;;11.30;99.90;;;;;;4162058;28;20041;-59
2024/03/11 09:48:25;;;;;;;9.77;6.07;;;11.30;99.90;;;;;;4144897;28;20466;-56
2024/03/11 09:50:37;;;;;;;8.00;4.97;;;11.40;99.90;;;;;;4162419;28;20029;-61
2024/03/11 09:52:42;;;;;;;10.13;5.27;;;11.50;99.90;;;;;;4162217;28;20081;-58
2024/03/11 09:54:44;;;;;;;9.07;4.87;;;11.50;99.90;;;;;;4162188;28;20494;-60
2024/03/11 09:56:47;;;;;;;7.30;3.97;;;11.50;99.90;;;;;;4160658;28;20037;-56
2024/03/11 09:58:58;;;;;;;9.20;4.67;;;11.60;99.90;;;;;;4161621;28;20025;-57
2024/03/11 10:01:00;;;;;;;9.87;4.33;;;11.60;99.90;;;;;;4161634;28;20377;-59
2024/03/11 10:03:05;;;;;;;13.43;5.50;;;11.60;99.90;;;;;;4161641;28;20045;-61
2024/03/11 10:05:08;;;;;;;8.53;4.63;;;11.70;99.90;;;;;;4160382;28;20057;-60
2024/03/11 10:07:09;;;;;;;8.43;4.20;;;11.80;99.90;;;;;;4161692;28;20099;-58
2024/03/11 10:09:18;;;;;;;12.77;4.43;;;11.80;99.90;;;;;;4161398;28;20043;-60
2024/03/11 10:11:21;;;;;;;8.63;4.80;;;11.90;99.90;;;;;;4162343;28;20095;-61
2024/03/11 10:13:28;;;;;;;10.20;4.83;;;12.00;99.90;;;;;;4160781;28;20041;-58
2024/03/11 10:15:33;;;;;;;9.53;5.77;;;12.10;99.90;;;;;;4162437;28;20029;-54
2024/03/11 10:17:34;;;;;;;12.40;6.60;;;12.20;99.90;;;;;;4161423;28;20368;-57
2024/03/11 10:19:58;;;;;;;10.47;5.17;;;12.20;99.90;;;;;;4162634;28;20029;-61
2024/03/11 10:22:03;;;;;;;9.57;5.13;;;12.30;99.90;;;;;;4175245;28;20045;-59
2024/03/11 10:24:05;;;;;;;11.00;4.93;;;12.40;99.90;;;;;;4162104;28;20437;-60
2024/03/11 10:26:17;;;;;;;11.27;4.47;;;12.50;99.90;;;;;;4159990;28;20083;-60
2024/03/11 10:28:33;;;;;;;8.20;4.30;;;12.50;99.90;;;;;;4161559;28;20075;-57
2024/03/11 10:30:34;;;;;;;7.77;3.93;;;12.70;99.90;;;;;;4160504;28;20115;-58
2024/03/11 10:32:42;;;;;;;7.40;3.83;;;12.80;99.90;;;;;;4161485;28;20037;-58
2024/03/11 10:34:54;;;;;;;10.07;4.53;;;12.80;99.90;;;;;;4160125;28;20049;-57